Dutch
Home     News     Corporate     Events & Tours     Flight ops     Crew centre      
My transavia virtual    Join us    Last logs    Who is flying    Software    Training    VRTS     
 

view flightdata
view flightplan
view OFP
view flightlog



flightdata:
pilot: Robin Hofmann
flight: TRA6630
from: LPMA (Funchal)
to: EHAM (Amsterdam Schiphol)
date: 07-05-2020
departure: 08:23z
arrival: 11:50z
duration: 3:26
aircraft: B738 (PHHXG)
distance: 1535 NM
touchdown: no landing



flightplan:
-(FPL-TRA6630-IS
-B738/M-SDEEFGHIJRWXY/LB1
-LPMA0835
-N0448F360 DEGUN DCT TELMU DCT TUNAV DCT IBIDO DCT DEMOS DCT LOTEE/N0440F360 UN741 MOKOR UN873 ADUTO N873 FERDI Y18 DENUT
-EHAM0325 EHRD
-EET/LECM0140 LFFF0210 EBUR0319 EHAA0326 PBN/B1D1O1 DOF/200507 REG/PHHXG SEL/KPBG CODE/4841A5 OPR/TRA RVR/200 RMK/TCAS)



operational flightplan (OFP):
DISPATCH BRIEFING (TEL:
--------- --------- --------- --------- --------- --------- ---------  
PREDEPARTURE ATC CLEARANCE:
.
.
--------- --------- --------- --------- --------- --------- ---------  
OFP  1    07 MAY 20/08:20
                                    OBS  N/A

TRA6630    C/S TRA6630  LPMA/FNC   EHAM/AMS         CRZ SYS     CI 10
07 MAY 20  PH-HXG       2125/2125  0119/0124        GND DIST     1584
B737-800 CFTAB:.....    CTOT:....  STA  0120        AIR DIST     1584
                                                    AVG W/C         0
MAXIMUM    ZFW  62731  LAW  66360  TOW  74975       AVG ISA       M04
ESTIMATED  ZFW  58715  LAW  61275  TOW  70609       F-F FACTOR    0.0
ACTUAL     ZFW  .....  LAW  .....  TOW  .....
--------- --------- --------- --------- --------- --------- ---------
TRIP        9334   0344           .....  .....
CONT         467   0013           .....  .....
ALTN         487   0010  EHRD     .....  .....  ....
FINAL       1097   0030           .....  .....
ADDNL        509   0014           .....  .....
TANKERING                  
PLN TOF    11385   0437
DIFF        ....   ....
PLN TOF     ....   ....  (CORRECTED)   
EXTRA          0   ....                  
TOF        11385   ....                 
TAXI         120   ....                  
BLOCK      12014   ....        
--------- --------- --------- --------- --------- --------- ---------
REASON EXTRA FUEL      MATRIX FUEL:
O ECN-ECONAMICAL     O TMP-TEMPORARILY      O ATC-AIR TRAFFIC CNTRL
O FOB-FUEL ON.BOARD  O MSC-MISCELLANEOUS    O FPC-FLIGHT PLN CORR
O WXR-WEATHER        O TEC-TECHNICAL        ACT.CI/CRZ USED: . . .   

--------- --------- --------- --------- --------- --------- ---------

ZFW ZFW 1000 : PLN TOF   XXXXX/TRIP XXXXX 00 MIN HOLD DEST: 0 EXTRA
ZFW ZFW-1000 : PLN TOF   XXXXX/TRIP XXXXX
--------- --------- --------- --------- --------- --------- ---------
COMMANDERS NAME:                           SIGNATURE:

--------- --------- --------- --------- --------- --------- ---------
FROM:  LPMA ELEV191      TO: EHAM ELEV-11        ALTN: EHRD ELEV -14
ATC C/S     : TRA66TRA6630            AVG ISA : M04
CO-ROUTE    :                        AVG TT  :   
FMC-RES FUEL: 1584                   AVG W/C :    0
CRZ ALT     : FL340                  FL310
CI          : CI 10                  FL200     360/000
                                     FL100

LPMA/23  N0448F340 XEGE1Y XEGEN UQ145 DIKUV/N0446F360 DCT DEMOS DCT
LOTEE UN741 MOKOR UN873 BAKUL/N0444F380 UN873 ADUTO N873
FERDI Y18 DENUT DENU1A EHAM/18R

--------- --------- --------- --------- --------- --------- ---------
.
.
--------- --------- --------- --------- --------- --------- ---------
RVSM ALT CHECK:  FL:...... LEFT: ...... STBY: ...... RIGHT: ......

--------- --------- --------- --------- --------- --------- ---------
DESTINATION ALTERNATE EHRD
--------- --------- --------- --------- --------- --------- ---------

--------- --------- --------- --------- --------- --------- ---------
--------- --------- --------- --------- --------- --------- ---------
ALTERNATE SUMMARY
--------- --------- --------- --------- --------- --------- ---------
      ALTN        DIST   LVL       WC TIME  FUEL VIA
      EHRD/24       28  FL050    0 0010   487 AMS
INFO/EBBR/25L     106  FL160    0 0025  1101 KUDA1P WOODY WODY7A
INFO/EBOS/26      134  FL210    0 0029  1273 KUDA1P WOODY N872 NIK
                                           L610 DENUT DENU4A
INFO/EBLG/22R     178  FL260    0 0035  1554 KUDA1P WOODY N872 NIK
                                           NIK5D
--------- --------- --------- --------- --------- --------- ---------




-(FPL-TRA6630-IS
-B738/M-SDEEFGHIJRWXY/LB1
-LPMA0835
-N0448F360 DEGUN DCT TELMU DCT TUNAV DCT IBIDO DCT DEMOS DCT LOTEE/N0440F360 UN741 MOKOR UN873 ADUTO N873 FERDI Y18 DENUT
-EHAM0325 EHRD
-EET/LECM0140 LFFF0210 EBUR0319 EHAA0326 PBN/B1D1O1 DOF/200507 REG/PHHXG SEL/KPBG CODE/4841A5 OPR/TRA RVR/200 RMK/TCAS)

WEATHER BRIEFING - GENERATED 07 MAY 2020 08:20 UTC
--------------------------------------------------------------------------------

LPMA EHAM EHRD EBBR EBOS EBLG

--------------------------------------------------------------------------------
ORIGIN: LPMA (FUNCHAL)
--------------------------------------------------------------------------------
LPMA 070800Z 35003KT 280V020 9999 FEW014 18/13 Q1017

LPMA 070500Z 0706/0806 VRB05KT 9999 SCT015
      TEMPO 0706/0806 BKN013 PROB30
      TEMPO 0710/0716 21010KT


--------------------------------------------------------------------------------
DESTINATION: EHAM (SCHIPHOL)
--------------------------------------------------------------------------------
EHAM 070755Z VRB02KT CAVOK 13/05 Q1025 NOSIG

EHAM 070440Z 0706/0812 VRB03KT CAVOK=  EKKA 070503Z 0706/0806 29010KT 9999 SCT020
      TEMPO 0706/0707 BKN012
      TEMPO 0711/0716 29012G22KT
      BECMG 0721/0723 24005KT
      BECMG 0723/0802 4000 BR PROB40
      TEMPO 0802/0805 0800 BCFG VV002


--------------------------------------------------------------------------------
ALTERNATE: EHRD (ROTTERDAM)
--------------------------------------------------------------------------------
EHRD 070755Z AUTO VRB02KT 9999 NCD 15/05 Q1024 NOSIG

EHRD 070441Z 0706/0812 VRB03KT CAVOK PROB30
      TEMPO 0801/0805 1400 BCFG


--------------------------------------------------------------------------------
ALTERNATE: EBBR (BRUSSELS)
--------------------------------------------------------------------------------
EBBR 070750Z 12003KT 070V170 CAVOK 15/05 Q1025 NOSIG

EBBR 070500Z 0706/0812 VRB03KT CAVOK=  EDDF 070500Z 0706/0812 VRB03KT CAVOK
      BECMG 0710/0712 34005KT
      BECMG 0718/0720 06003KT


--------------------------------------------------------------------------------
ALTERNATE: EBOS (OSTEND)
--------------------------------------------------------------------------------
EBOS 070750Z 13003KT 100V170 CAVOK 13/06 Q1024 NOSIG

EBOS 070500Z 0706/0812 12004KT CAVOK PROB30
      TEMPO 0712/0718 01010KT


--------------------------------------------------------------------------------
ALTERNATE: EBLG (LIÈGE)
--------------------------------------------------------------------------------
EBLG 070750Z 16005KT CAVOK 15/02 Q1025 NOSIG

EBLG 070500Z 0706/0812 15004KT CAVOK


NOTAM BRIEFING - GENERATED 07 MAY 2020 08:20 UTC
--------------------------------------------------------------------------------

LPMA EHAM EHRD EHRD EBBR EBOS EBLG

--------------------------------------------------------------------------------
GLOBAL TRANSAVIA.COM VIRTUAL NOTAMS
--------------------------------------------------------------------------------
REF:NIL PLEASE CONTACT OPERATIONS IN CASE OF STRUCTURAL FLIGHTPLAN ERRORS ON FLIGHT-OPS@TRANSAVIA-VIRTUAL.COM
VALID:UFN

REF:NIL
PLEASE CHECK ACARS EVERY 10 MINUTES WHEN FLYING WITH SOUND OFF. AN NEW ACARS MESSAGE PRODUCE A SOUND SIGNAL UNTILL ITS READ. FLOWCONTROL DON'T RECEIVE MUCH REACTION ON OUTGOING ACARS MESSAGES ACCORDING FLIGHTSTATUS.
SOURCE: SPL/HV/OCC/
END VALID: UFN

REF:NIL
PLEASE CONTACT FLOWCONTROL IN CASE OF PROBLEMS WITH ROUTINGS
SOURCE: SPL/HV/OCC/
END VALID: UFN

REF:NIL
IN CASE OF ENGINE-OUT FLY V2 OR V2 20 MAX. UNTIL ABOVE MSA.
LEVEL-OFF AT AN ALTITUDE ROUNDED OFF TO THE FIRST 1000 FT OF THE HIGHEST MSA.
E.G: MSA EHAM; 1.7 AND 2.3 LEVEL-OFF 3000 FT. AFTER LANDING MAKE A REP TO OCC ON 131.975
SOURCE:SPL/HV/OCC
END VALID:UFN



flightlog:
Pilot : Robin Hofmann
Flight: TRA6630
From  : LPMA Funchal
To    : EHAM Schiphol

[FLIGHTLOG] 1.5.4
07-05-2020 08:21:13z, logging started
07-05-2020 08:23:53z, parking brake released
07-05-2020 08:25:19z, flaps set to 13%
07-05-2020 08:25:26z, flaps set to 25%
07-05-2020 08:30:42z, take-off at 163 KIAS
07-05-2020 08:30:42z, pos report: 163 KIAS, 00 157 ft, heading 045, winds 326 @ 03 kts
07-05-2020 08:30:42z, flying OFFLINE
07-05-2020 08:30:42z, position: LPMA - Funchal
07-05-2020 08:30:49z, retracted gear at 172 KIAS and 137 ft AGL
07-05-2020 08:31:55z, flaps set to 25%
07-05-2020 08:31:59z, flaps set to 13%
07-05-2020 08:32:20z, flaps set to 0%
07-05-2020 08:36:12z, pos report: 303 KIAS, 13 028 ft, heading 049, winds 233 @ 07 kts
07-05-2020 08:51:13z, pos report: 265 KIAS, 35 596 ft, heading 022, winds 211 @ 35 kts
07-05-2020 09:06:15z, pos report: 260 KIAS, 36 044 ft, heading 035, winds 198 @ 46 kts
07-05-2020 09:21:16z, pos report: 260 KIAS, 36 016 ft, heading 035, winds 201 @ 35 kts
07-05-2020 09:36:16z, pos report: 259 KIAS, 36 024 ft, heading 031, winds 196 @ 50 kts
07-05-2020 09:51:17z, pos report: 271 KIAS, 36 033 ft, heading 032, winds 200 @ 57 kts
07-05-2020 10:06:17z, pos report: 271 KIAS, 36 097 ft, heading 045, winds 208 @ 63 kts
07-05-2020 10:21:18z, pos report: 271 KIAS, 36 128 ft, heading 044, winds 223 @ 61 kts
07-05-2020 10:36:19z, pos report: 271 KIAS, 36 209 ft, heading 041, winds 232 @ 57 kts
07-05-2020 10:51:20z, pos report: 271 KIAS, 36 215 ft, heading 051, winds 243 @ 58 kts
07-05-2020 11:06:21z, pos report: 271 KIAS, 36 287 ft, heading 034, winds 255 @ 44 kts
07-05-2020 11:21:23z, pos report: 258 KIAS, 31 763 ft, heading 043, winds 253 @ 31 kts
07-05-2020 11:36:23z, pos report: 249 KIAS, 10 178 ft, heading 043, winds 220 @ 11 kts
07-05-2020 11:41:32z, below glideslope
07-05-2020 11:42:02z, flaps set to 13%
07-05-2020 11:44:23z, flaps set to 25%
07-05-2020 11:44:27z, flaps set to 38%
07-05-2020 11:44:44z, intercepted localizer
07-05-2020 11:45:13z, on glideslope
07-05-2020 11:45:36z, flaps set to 50%
07-05-2020 11:45:40z, lowered gear at 193 KIAS and 1767 ft AGL
07-05-2020 11:46:07z, flaps set to 75%
07-05-2020 11:46:11z, flaps set to 87%
07-05-2020 11:49:00z, flaps set to 0%
07-05-2020 11:51:24z, pos report: 000 KIAS, 00 013 ft, heading 058, winds 335 @ 02 kts
07-05-2020 11:50:43z, parking brake set
07-05-2020 11:51:49z, logging ended

©2009-2021, transavia virtual. All rights reserved. This website is only meant for simulation purposes.
This website is not owned by transavia, nor is transavia responsible for the content of this website.